createdAt,value
2023-09-27T00:00:28.703Z,72.74
2023-09-27T00:05:30.176Z,73.62
2023-09-27T00:10:31.629Z,74.80
2023-09-27T00:15:32.922Z,73.99
2023-09-27T00:20:34.188Z,73.78
2023-09-27T00:25:35.424Z,73.17
2023-09-27T00:30:36.712Z,74.57
2023-09-27T00:35:37.986Z,73.13
2023-09-27T00:40:39.208Z,73.35
2023-09-27T00:45:40.419Z,72.65
2023-09-27T00:50:41.731Z,72.55
2023-09-27T00:55:43.130Z,72.53
2023-09-27T01:00:44.394Z,72.35
2023-09-27T01:05:45.805Z,72.67
2023-09-27T01:10:47.156Z,72.95
2023-09-27T01:15:48.521Z,73.65
2023-09-27T01:20:49.762Z,73.02
2023-09-27T01:25:51.037Z,72.59
2023-09-27T01:30:52.322Z,72.45
2023-09-27T01:35:55.227Z,72.88
2023-09-27T01:40:56.621Z,72.49
2023-09-27T01:45:57.948Z,72.67
2023-09-27T01:50:59.264Z,74.06
2023-09-27T01:56:00.646Z,74.83
2023-09-27T02:01:01.974Z,73.44
2023-09-27T02:06:03.275Z,73.59
2023-09-27T02:11:04.704Z,72.81
2023-09-27T02:16:06.039Z,72.39
2023-09-27T02:21:07.612Z,72.71
2023-09-27T02:26:10.580Z,72.61
2023-09-27T02:31:11.993Z,73.32
2023-09-27T02:36:13.315Z,73.83
2023-09-27T02:41:14.832Z,73.22
2023-09-27T02:46:16.154Z,72.81
2023-09-27T02:51:17.434Z,72.40
2023-09-27T02:56:18.897Z,73.39
2023-09-27T03:01:20.262Z,72.72
2023-09-27T03:06:21.633Z,73.11
2023-09-27T03:11:22.984Z,73.54
2023-09-27T03:16:24.775Z,73.32
2023-09-27T03:21:27.624Z,73.78
2023-09-27T03:26:28.931Z,74.22
2023-09-27T03:31:31.403Z,75.49
2023-09-27T03:36:32.768Z,74.69
2023-09-27T03:41:34.049Z,74.03
2023-09-27T03:46:35.436Z,74.08
2023-09-27T03:51:36.768Z,74.41
2023-09-27T03:56:38.045Z,74.61
2023-09-27T04:01:39.334Z,74.48
2023-09-27T04:06:40.651Z,75.17
2023-09-27T04:11:42.006Z,75.58
2023-09-27T04:16:43.347Z,76.62
2023-09-27T04:21:44.672Z,77.81
2023-09-27T04:26:45.964Z,78.01
2023-09-27T04:31:47.271Z,78.22
2023-09-27T04:36:48.513Z,78.38
2023-09-27T04:41:49.852Z,79.84
2023-09-27T04:46:51.581Z,78.86
2023-09-27T04:51:52.981Z,77.67
2023-09-27T04:56:54.320Z,76.65
2023-09-27T05:01:55.700Z,77.82
2023-09-27T05:06:56.961Z,76.91
2023-09-27T05:11:58.194Z,78.37
2023-09-27T05:16:59.522Z,78.88
2023-09-27T05:22:00.829Z,78.06
2023-09-27T05:27:04.643Z,78.21
2023-09-27T05:32:06.011Z,79.02
2023-09-27T05:37:07.364Z,79.75
2023-09-27T05:42:08.626Z,79.83
2023-09-27T05:47:11.011Z,79.67
2023-09-27T05:52:13.753Z,81.53
2023-09-27T05:57:15.358Z,81.00
2023-09-27T06:02:21.344Z,82.79
2023-09-27T06:07:23.969Z,83.60
2023-09-27T06:12:26.362Z,83.72
2023-09-27T06:17:28.441Z,78.97
2023-09-27T06:22:29.915Z,76.47
2023-09-27T06:27:31.168Z,75.31
2023-09-27T06:32:32.675Z,74.18
2023-09-27T06:37:34.028Z,73.67
2023-09-27T06:42:35.293Z,73.27
2023-09-27T06:47:37.996Z,73.13
2023-09-27T06:52:41.159Z,74.82
2023-09-27T06:57:42.704Z,76.12
2023-09-27T07:02:45.340Z,75.18
2023-09-27T07:07:48.251Z,74.28
2023-09-27T07:12:49.541Z,75.98
2023-09-27T07:17:51.530Z,76.40
2023-09-27T07:22:53.041Z,77.11
2023-09-27T07:27:56.328Z,74.97
2023-09-27T07:32:58.179Z,75.12
2023-09-27T07:37:59.707Z,74.49
2023-09-27T07:43:00.932Z,73.70
2023-09-27T07:48:02.361Z,73.98
2023-09-27T07:53:05.024Z,75.63
2023-09-27T07:58:06.573Z,76.30
2023-09-27T08:03:09.228Z,79.24
2023-09-27T08:08:11.265Z,78.81
2023-09-27T08:13:12.652Z,78.35
2023-09-27T08:18:13.956Z,80.73
2023-09-27T08:23:15.359Z,80.28
2023-09-27T08:28:17.583Z,78.96
2023-09-27T08:33:18.940Z,80.24
2023-09-27T08:38:20.256Z,79.68
2023-09-27T08:43:22.970Z,77.91
2023-09-27T08:48:25.482Z,76.96
2023-09-27T08:53:26.904Z,77.98
2023-09-27T08:58:29.100Z,77.57
2023-09-27T09:03:31.447Z,76.96
2023-09-27T09:08:54.629Z,79.11
2023-09-27T09:13:54.348Z,78.41
2023-09-27T09:18:56.654Z,75.13
2023-09-27T09:23:58.313Z,77.29
2023-09-27T09:29:03.724Z,77.71
2023-09-27T09:34:05.588Z,77.18
2023-09-27T09:39:07.043Z,75.86
2023-09-27T09:44:08.392Z,75.58
2023-09-27T09:49:09.746Z,74.81
2023-09-27T09:54:10.991Z,74.65
2023-09-27T09:59:14.372Z,74.75
2023-09-27T10:04:16.759Z,71.65
2023-09-27T10:09:18.175Z,72.31
2023-09-27T10:14:19.892Z,68.42
2023-09-27T10:24:36.462Z,67.23
2023-09-27T10:29:37.795Z,68.06
2023-09-27T10:34:39.096Z,66.30
2023-09-27T10:39:41.202Z,67.40
2023-09-27T10:44:44.811Z,65.55
2023-09-27T10:49:46.240Z,65.52
2023-09-27T10:54:47.883Z,65.22
2023-09-27T10:59:51.720Z,63.79
2023-09-27T11:04:52.986Z,63.50
2023-09-27T11:09:55.129Z,61.85
2023-09-27T11:14:57.410Z,61.25
2023-09-27T11:19:58.857Z,61.50
2023-09-27T11:25:00.585Z,60.60
2023-09-27T11:30:01.876Z,59.11
2023-09-27T11:35:05.319Z,58.69
2023-09-27T11:40:07.185Z,58.49
2023-09-27T11:45:13.887Z,58.83
2023-09-27T11:50:15.151Z,55.06
2023-09-27T11:55:16.410Z,55.92
2023-09-27T12:00:17.785Z,54.96
2023-09-27T12:05:19.723Z,55.02
2023-09-27T12:10:21.150Z,52.95
2023-09-27T12:15:22.420Z,54.20
2023-09-27T12:20:38.520Z,51.46
2023-09-27T12:25:43.337Z,52.87
2023-09-27T12:30:44.732Z,51.21
2023-09-27T12:35:47.873Z,50.64
2023-09-27T12:40:49.270Z,51.54
2023-09-27T12:45:50.579Z,52.40
2023-09-27T12:50:51.882Z,50.62
2023-09-27T12:55:53.194Z,49.44
2023-09-27T13:00:54.476Z,48.57
2023-09-27T13:05:56.005Z,49.38
2023-09-27T13:10:57.414Z,49.13
2023-09-27T13:15:58.822Z,49.87
2023-09-27T13:21:00.537Z,48.05
2023-09-27T13:26:01.793Z,46.70
2023-09-27T13:31:03.650Z,46.65
2023-09-27T13:36:05.549Z,47.29
2023-09-27T13:41:07.410Z,48.39
2023-09-27T13:46:08.824Z,48.35
2023-09-27T13:51:10.223Z,48.49
2023-09-27T13:56:11.481Z,47.70
2023-09-27T14:01:12.795Z,46.90
2023-09-27T14:06:14.171Z,46.42
2023-09-27T14:11:15.538Z,47.90
2023-09-27T14:16:20.182Z,45.76
2023-09-27T14:21:21.595Z,46.37
2023-09-27T14:26:22.964Z,46.68
2023-09-27T14:31:29.123Z,47.13
2023-09-27T14:36:30.669Z,46.79
2023-09-27T14:41:33.152Z,48.77
2023-09-27T14:46:35.028Z,48.06
2023-09-27T14:51:36.419Z,47.51
2023-09-27T14:56:37.654Z,48.63
2023-09-27T15:01:39.569Z,49.89
2023-09-27T15:06:41.107Z,48.74
2023-09-27T15:11:43.352Z,48.95
2023-09-27T15:16:44.710Z,50.14
2023-09-27T15:21:48.311Z,48.73
2023-09-27T15:26:49.539Z,50.05
2023-09-27T15:31:50.902Z,50.87
2023-09-27T15:36:52.625Z,50.67
2023-09-27T15:41:54.638Z,51.10
2023-09-27T15:46:55.945Z,50.95
2023-09-27T15:51:57.546Z,52.00
2023-09-27T15:56:58.757Z,53.86
2023-09-27T16:01:59.991Z,53.54
2023-09-27T16:07:01.258Z,53.58
2023-09-27T16:12:02.950Z,53.62
2023-09-27T16:17:04.249Z,54.88
2023-09-27T16:22:05.490Z,54.86
2023-09-27T16:27:06.854Z,55.91
2023-09-27T16:32:08.154Z,56.81
2023-09-27T16:37:10.047Z,57.48
2023-09-27T16:42:11.325Z,58.10
2023-09-27T16:47:12.746Z,58.90
2023-09-27T16:52:15.423Z,60.65
2023-09-27T16:57:16.732Z,60.85
2023-09-27T17:02:18.162Z,61.87
2023-09-27T17:07:19.508Z,63.01
2023-09-27T17:12:20.750Z,65.27
2023-09-27T17:17:22.011Z,64.79
2023-09-27T17:22:23.407Z,65.56
2023-09-27T17:27:24.679Z,65.42
2023-09-27T17:32:26.018Z,65.18
2023-09-27T17:37:27.379Z,65.81
2023-09-27T17:42:28.676Z,66.14
2023-09-27T17:47:30.024Z,66.42
2023-09-27T17:52:31.306Z,66.64
2023-09-27T17:57:32.849Z,67.65
2023-09-27T18:02:34.757Z,67.34
2023-09-27T18:07:36.250Z,68.17
2023-09-27T18:12:37.483Z,68.31
2023-09-27T18:17:38.770Z,68.25
2023-09-27T18:22:40.152Z,67.92
2023-09-27T18:27:41.454Z,67.79
2023-09-27T18:32:42.756Z,69.41
2023-09-27T18:37:44.072Z,69.60
2023-09-27T18:42:45.284Z,69.84
2023-09-27T18:47:48.768Z,70.14
2023-09-27T18:52:51.777Z,69.89
2023-09-27T18:57:53.213Z,70.01
2023-09-27T19:02:54.454Z,70.42
2023-09-27T19:07:55.754Z,71.11
2023-09-27T19:12:57.012Z,71.24
2023-09-27T19:17:58.513Z,70.73
2023-09-27T19:22:59.932Z,71.23
2023-09-27T19:28:02.081Z,70.72
2023-09-27T19:33:03.724Z,71.00
2023-09-27T19:38:05.080Z,70.14
2023-09-27T19:43:06.398Z,70.93
2023-09-27T19:48:07.649Z,71.30
2023-09-27T19:53:08.975Z,72.28
2023-09-27T19:58:10.254Z,71.64
2023-09-27T20:03:12.027Z,72.46
2023-09-27T20:08:13.286Z,72.39
2023-09-27T20:13:14.578Z,71.90
2023-09-27T20:18:15.780Z,71.62
2023-09-27T20:23:17.785Z,71.00
2023-09-27T20:28:19.298Z,71.68
2023-09-27T20:33:20.539Z,71.87
2023-09-27T20:38:21.873Z,71.54
2023-09-27T20:43:23.176Z,72.30
2023-09-27T20:48:24.533Z,71.82
2023-09-27T20:53:25.750Z,72.01
2023-09-27T20:58:26.986Z,71.50
2023-09-27T21:03:28.427Z,71.76
2023-09-27T21:08:29.681Z,73.09
2023-09-27T21:13:30.942Z,71.85
2023-09-27T21:18:32.445Z,72.99
2023-09-27T21:23:35.295Z,71.96
2023-09-27T21:28:36.645Z,72.05
2023-09-27T21:33:37.935Z,72.02
2023-09-27T21:38:39.927Z,72.70
2023-09-27T21:43:41.407Z,72.14
2023-09-27T21:48:42.681Z,71.51
2023-09-27T21:53:43.964Z,72.28
2023-09-27T21:58:45.314Z,71.99
2023-09-27T22:03:46.568Z,72.30
2023-09-27T22:08:53.370Z,72.59
2023-09-27T22:13:55.540Z,72.87
2023-09-27T22:19:01.504Z,72.37
2023-09-27T22:24:13.092Z,71.55
2023-09-27T22:29:15.389Z,73.28
2023-09-27T22:34:26.063Z,72.22
2023-09-27T22:39:29.705Z,72.19
2023-09-27T22:44:33.865Z,72.25
2023-09-27T22:49:35.832Z,71.60
2023-09-27T22:54:39.433Z,72.08
2023-09-27T22:59:40.778Z,71.96
2023-09-27T23:04:42.359Z,71.11
2023-09-27T23:09:43.783Z,71.72
2023-09-27T23:15:03.938Z,72.27
2023-09-27T23:20:06.068Z,73.60
2023-09-27T23:25:26.180Z,73.02
2023-09-27T23:30:27.419Z,72.70
2023-09-27T23:35:31.162Z,73.16
2023-09-27T23:40:33.248Z,72.71
2023-09-27T23:45:37.521Z,74.22
2023-09-27T23:50:38.775Z,75.68
2023-09-27T23:55:43.579Z,74.45
